createdAt,value
2019-03-26T00:00:33.785Z,76.05
2019-03-26T00:03:03.207Z,75.96
2019-03-26T00:05:32.645Z,75.78
2019-03-26T00:08:02.078Z,75.44
2019-03-26T00:10:31.517Z,75.79
2019-03-26T00:13:00.943Z,75.81
2019-03-26T00:15:30.379Z,75.89
2019-03-26T00:17:59.819Z,75.80
2019-03-26T00:20:29.253Z,75.48
2019-03-26T00:22:58.754Z,75.42
2019-03-26T00:25:28.192Z,75.10
2019-03-26T00:27:57.627Z,75.34
2019-03-26T00:30:27.064Z,75.68
2019-03-26T00:32:56.483Z,75.21
2019-03-26T00:35:25.949Z,74.97
2019-03-26T00:37:55.362Z,74.87
2019-03-26T00:40:24.799Z,74.95
2019-03-26T00:42:54.223Z,74.75
2019-03-26T00:45:23.660Z,74.74
2019-03-26T00:47:53.087Z,75.02
2019-03-26T00:50:22.531Z,74.86
2019-03-26T00:52:51.969Z,74.85
2019-03-26T00:55:22.985Z,75.39
2019-03-26T00:57:52.799Z,74.83
2019-03-26T01:00:36.030Z,74.65
2019-03-26T01:03:06.001Z,74.89
2019-03-26T01:05:35.443Z,75.42
2019-03-26T01:08:04.938Z,75.43
2019-03-26T01:10:34.431Z,75.56
2019-03-26T01:13:04.278Z,75.34
2019-03-26T01:15:33.988Z,75.42
2019-03-26T01:18:03.415Z,75.29
2019-03-26T01:20:32.859Z,74.67
2019-03-26T01:23:02.295Z,74.55
2019-03-26T01:25:31.740Z,74.65
2019-03-26T01:28:01.180Z,74.86
2019-03-26T01:30:30.615Z,75.02
2019-03-26T01:33:00.067Z,73.80
2019-03-26T01:35:29.503Z,74.21
2019-03-26T01:37:58.941Z,74.41
2019-03-26T01:40:28.417Z,74.94
2019-03-26T01:42:57.822Z,74.98
2019-03-26T01:45:27.245Z,74.55
2019-03-26T01:47:56.675Z,74.49
2019-03-26T01:50:26.105Z,74.79
2019-03-26T01:52:55.539Z,74.53
2019-03-26T01:55:25.036Z,74.68
2019-03-26T01:57:54.472Z,74.77
2019-03-26T02:00:23.967Z,75.01
2019-03-26T02:02:53.409Z,74.78
2019-03-26T02:05:22.837Z,75.12
2019-03-26T02:07:52.262Z,74.94
2019-03-26T02:10:21.692Z,74.53
2019-03-26T02:12:51.128Z,74.96
2019-03-26T02:15:30.048Z,75.06
2019-03-26T02:18:00.132Z,74.93
2019-03-26T02:20:29.622Z,75.19
2019-03-26T02:22:59.128Z,75.64
2019-03-26T02:25:28.557Z,75.96
2019-03-26T02:27:58.167Z,75.94
2019-03-26T02:30:27.578Z,76.34
2019-03-26T02:32:57.014Z,76.15
2019-03-26T02:35:26.434Z,75.70
2019-03-26T02:37:55.944Z,75.77
2019-03-26T02:40:25.370Z,75.58
2019-03-26T02:42:54.820Z,75.70
2019-03-26T02:45:24.310Z,75.68
2019-03-26T02:47:53.749Z,75.95
2019-03-26T02:50:23.182Z,75.95
2019-03-26T02:52:52.616Z,76.22
2019-03-26T02:55:22.036Z,76.21
2019-03-26T02:57:51.701Z,76.00
2019-03-26T03:00:21.366Z,76.02
2019-03-26T03:02:50.800Z,76.00
2019-03-26T03:05:34.238Z,76.14
2019-03-26T03:07:51.414Z,76.23
2019-03-26T03:10:21.241Z,76.15
2019-03-26T03:12:50.680Z,76.00
2019-03-26T03:15:20.194Z,76.27
2019-03-26T03:17:49.961Z,76.35
2019-03-26T03:20:19.574Z,76.45
2019-03-26T03:22:48.991Z,76.63
2019-03-26T03:25:18.407Z,77.02
2019-03-26T03:27:47.847Z,76.81
2019-03-26T03:30:17.888Z,76.92
2019-03-26T03:32:47.346Z,77.12
2019-03-26T03:35:16.834Z,77.18
2019-03-26T03:37:46.273Z,77.01
2019-03-26T03:40:15.844Z,77.18
2019-03-26T03:42:45.421Z,77.27
2019-03-26T03:45:18.297Z,77.69
2019-03-26T03:47:48.379Z,77.78
2019-03-26T03:50:17.898Z,77.51
2019-03-26T03:52:48.056Z,77.51
2019-03-26T03:55:17.759Z,78.09
2019-03-26T03:57:52.829Z,78.10
2019-03-26T04:00:40.472Z,78.17
2019-03-26T04:03:10.426Z,77.91
2019-03-26T04:05:40.097Z,78.27
2019-03-26T04:08:09.550Z,78.23
2019-03-26T04:10:38.982Z,78.13
2019-03-26T04:13:08.711Z,78.13
2019-03-26T04:15:38.205Z,78.30
2019-03-26T04:18:07.708Z,78.09
2019-03-26T04:20:37.144Z,78.02
2019-03-26T04:23:07.024Z,78.07
2019-03-26T04:25:36.736Z,78.31
2019-03-26T04:28:06.174Z,78.63
2019-03-26T04:30:35.752Z,78.89
2019-03-26T04:33:05.315Z,78.63
2019-03-26T04:35:34.768Z,78.60
2019-03-26T04:38:04.265Z,78.57
2019-03-26T04:40:33.706Z,78.35
2019-03-26T04:43:03.141Z,78.48
2019-03-26T04:45:32.584Z,78.68
2019-03-26T04:48:02.027Z,78.53
2019-03-26T04:50:31.719Z,78.37
2019-03-26T04:53:01.226Z,78.55
2019-03-26T04:55:30.663Z,78.37
2019-03-26T04:58:00.098Z,78.30
2019-03-26T05:00:29.540Z,78.42
2019-03-26T05:02:58.980Z,78.50
2019-03-26T05:05:28.497Z,78.78
2019-03-26T05:07:58.271Z,78.91
2019-03-26T05:10:27.718Z,78.72
2019-03-26T05:12:57.152Z,78.42
2019-03-26T05:15:26.598Z,78.79
2019-03-26T05:17:56.820Z,78.59
2019-03-26T05:20:26.539Z,78.09
2019-03-26T05:22:55.975Z,77.66
2019-03-26T05:25:25.428Z,77.89
2019-03-26T05:27:54.863Z,77.90
2019-03-26T05:30:24.319Z,78.00
2019-03-26T05:32:53.762Z,77.53
2019-03-26T05:35:23.208Z,77.91
2019-03-26T05:37:52.650Z,78.18
2019-03-26T05:40:22.099Z,78.62
2019-03-26T05:42:51.529Z,78.99
2019-03-26T05:45:20.979Z,79.83
2019-03-26T05:47:50.415Z,79.77
2019-03-26T05:50:19.879Z,80.04
2019-03-26T05:52:49.324Z,79.88
2019-03-26T05:55:18.767Z,79.97
2019-03-26T05:57:48.210Z,79.98
2019-03-26T06:00:19.512Z,79.92
2019-03-26T06:02:48.951Z,79.92
2019-03-26T06:05:18.392Z,79.68
2019-03-26T06:07:47.835Z,79.79
2019-03-26T06:10:17.475Z,79.99
2019-03-26T06:12:50.072Z,79.85
2019-03-26T06:15:18.095Z,80.14
2019-03-26T06:17:47.525Z,79.84
2019-03-26T06:20:17.039Z,79.37
2019-03-26T06:22:46.543Z,79.42
2019-03-26T06:25:15.998Z,79.85
2019-03-26T06:27:45.421Z,79.65
2019-03-26T06:30:15.269Z,79.64
2019-03-26T06:32:44.703Z,79.27
2019-03-26T06:35:14.279Z,78.98
2019-03-26T06:37:43.719Z,78.82
2019-03-26T06:40:13.969Z,78.90
2019-03-26T06:42:43.403Z,79.18
2019-03-26T06:45:14.128Z,79.56
2019-03-26T06:47:43.565Z,79.44
2019-03-26T06:50:13.722Z,79.20
2019-03-26T06:52:43.154Z,78.82
2019-03-26T06:55:13.044Z,78.29
2019-03-26T06:57:42.485Z,78.33
2019-03-26T07:00:15.539Z,78.31
2019-03-26T07:02:45.399Z,77.64
2019-03-26T07:05:15.106Z,77.08
2019-03-26T07:07:44.610Z,77.30
2019-03-26T07:10:16.314Z,76.79
2019-03-26T07:12:45.767Z,76.56
2019-03-26T07:15:15.374Z,76.57
2019-03-26T07:17:44.820Z,76.71
2019-03-26T07:20:15.420Z,76.69
2019-03-26T07:22:44.888Z,77.23
2019-03-26T07:25:14.338Z,76.57
2019-03-26T07:27:43.782Z,75.85
2019-03-26T07:30:22.479Z,75.62
2019-03-26T07:32:51.914Z,76.20
2019-03-26T07:35:21.693Z,75.99
2019-03-26T07:37:51.136Z,75.85
2019-03-26T07:40:20.595Z,75.80
2019-03-26T07:42:50.030Z,75.55
2019-03-26T07:45:19.472Z,75.66
2019-03-26T07:47:48.978Z,75.34
2019-03-26T07:50:18.514Z,75.07
2019-03-26T07:52:47.961Z,75.30
2019-03-26T07:55:17.403Z,75.23
2019-03-26T07:57:46.852Z,75.14
2019-03-26T08:00:18.497Z,75.46
2019-03-26T08:02:47.939Z,75.32
2019-03-26T08:05:29.280Z,74.97
2019-03-26T08:07:58.357Z,74.70
2019-03-26T08:10:19.716Z,74.51
2019-03-26T08:12:49.189Z,74.50
2019-03-26T08:15:20.266Z,74.37
2019-03-26T08:17:49.790Z,74.22
2019-03-26T08:20:19.310Z,74.23
2019-03-26T08:22:48.756Z,73.71
2019-03-26T08:25:18.198Z,73.81
2019-03-26T08:27:47.650Z,73.59
2019-03-26T08:30:17.148Z,73.13
2019-03-26T08:32:46.614Z,73.49
2019-03-26T08:35:16.051Z,73.19
2019-03-26T08:37:45.494Z,73.00
2019-03-26T08:40:15.411Z,73.01
2019-03-26T08:42:45.123Z,72.46
2019-03-26T08:45:15.297Z,72.57
2019-03-26T08:47:44.753Z,72.14
2019-03-26T08:50:14.394Z,71.68
2019-03-26T08:52:43.849Z,72.14
2019-03-26T08:55:14.323Z,71.77
2019-03-26T08:57:43.770Z,71.83
2019-03-26T09:00:14.113Z,71.72
2019-03-26T09:02:45.161Z,71.85
2019-03-26T09:05:15.075Z,71.53
2019-03-26T09:07:44.559Z,71.22
2019-03-26T09:10:15.605Z,71.13
2019-03-26T09:12:45.183Z,71.64
2019-03-26T09:15:14.963Z,71.54
2019-03-26T09:17:44.931Z,71.43
2019-03-26T09:20:15.130Z,70.92
2019-03-26T09:22:44.574Z,71.08
2019-03-26T09:25:14.645Z,70.93
2019-03-26T09:27:44.105Z,71.00
2019-03-26T09:30:14.168Z,70.51
2019-03-26T09:32:44.065Z,70.65
2019-03-26T09:35:13.943Z,70.46
2019-03-26T09:37:43.392Z,70.57
2019-03-26T09:40:13.374Z,70.28
2019-03-26T09:42:42.825Z,70.49
2019-03-26T09:45:13.958Z,70.52
2019-03-26T09:47:43.407Z,70.08
2019-03-26T09:50:16.524Z,70.12
2019-03-26T09:52:45.970Z,69.76
2019-03-26T09:55:15.484Z,69.40
2019-03-26T09:57:44.931Z,69.11
2019-03-26T10:00:14.440Z,68.38
2019-03-26T10:02:43.888Z,68.46
2019-03-26T10:05:14.158Z,68.52
2019-03-26T10:07:43.615Z,68.20
2019-03-26T10:10:14.054Z,67.66
2019-03-26T10:12:43.746Z,67.13
2019-03-26T10:15:13.605Z,67.03
2019-03-26T10:17:43.058Z,66.69
2019-03-26T10:20:12.755Z,66.36
2019-03-26T10:22:42.206Z,66.22
2019-03-26T10:25:12.377Z,65.97
2019-03-26T10:27:41.835Z,65.32
2019-03-26T10:30:14.577Z,64.75
2019-03-26T10:32:44.044Z,64.30
2019-03-26T10:35:13.746Z,64.37
2019-03-26T10:37:43.197Z,63.72
2019-03-26T10:40:17.355Z,61.65
2019-03-26T10:42:47.053Z,61.60
2019-03-26T10:45:16.571Z,60.52
2019-03-26T10:47:46.032Z,61.38
2019-03-26T10:50:15.463Z,61.09
2019-03-26T10:52:44.902Z,61.29
2019-03-26T10:55:14.351Z,61.68
2019-03-26T10:57:43.781Z,60.62
2019-03-26T11:00:13.776Z,60.71
2019-03-26T11:02:43.202Z,60.28
2019-03-26T11:05:13.002Z,59.74
2019-03-26T11:07:42.936Z,60.48
2019-03-26T11:10:13.150Z,60.96
2019-03-26T11:12:42.562Z,61.24
2019-03-26T11:15:13.248Z,61.31
2019-03-26T11:17:42.693Z,60.63
2019-03-26T11:20:12.952Z,61.16
2019-03-26T11:22:42.401Z,60.53
2019-03-26T11:25:12.560Z,59.99
2019-03-26T11:27:42.075Z,59.39
2019-03-26T11:30:11.779Z,59.89
2019-03-26T11:32:41.272Z,59.77
2019-03-26T11:35:11.472Z,59.60
2019-03-26T11:37:40.919Z,58.84
2019-03-26T11:40:10.849Z,57.76
2019-03-26T11:42:40.284Z,56.09
2019-03-26T11:45:10.744Z,57.20
2019-03-26T11:47:40.927Z,55.78
2019-03-26T11:50:11.821Z,55.24
2019-03-26T11:52:41.594Z,55.24
2019-03-26T11:55:12.044Z,51.16
2019-03-26T11:57:41.763Z,53.72
2019-03-26T12:00:15.486Z,51.37
2019-03-26T12:02:44.915Z,51.71
2019-03-26T12:05:14.506Z,50.95
2019-03-26T12:07:43.958Z,50.90
2019-03-26T12:10:14.049Z,51.24
2019-03-26T12:12:43.488Z,50.66
2019-03-26T12:15:13.567Z,50.55
2019-03-26T12:17:43.005Z,50.74
2019-03-26T12:20:12.522Z,50.81
2019-03-26T12:22:41.964Z,50.76
2019-03-26T12:25:12.073Z,51.30
2019-03-26T12:27:41.511Z,51.64
2019-03-26T12:30:11.115Z,51.91
2019-03-26T12:32:41.224Z,51.80
2019-03-26T12:35:15.598Z,52.57
2019-03-26T12:37:45.145Z,52.70
2019-03-26T12:40:14.680Z,52.75
2019-03-26T12:42:44.106Z,53.11
2019-03-26T12:45:15.202Z,52.44
2019-03-26T12:47:44.626Z,51.57
2019-03-26T12:50:14.072Z,51.88
2019-03-26T12:52:43.504Z,51.59
2019-03-26T12:55:12.958Z,51.67
2019-03-26T12:57:42.398Z,51.31
2019-03-26T13:00:12.092Z,51.22
2019-03-26T13:02:41.521Z,51.35
2019-03-26T13:05:11.542Z,49.44
2019-03-26T13:07:40.982Z,49.61
2019-03-26T13:10:13.981Z,49.61
2019-03-26T13:12:41.727Z,49.69
2019-03-26T13:15:11.239Z,50.34
2019-03-26T13:17:40.697Z,48.39
2019-03-26T13:20:10.372Z,48.59
2019-03-26T13:22:39.805Z,49.21
2019-03-26T13:25:10.390Z,49.17
2019-03-26T13:27:40.291Z,47.79
2019-03-26T13:30:17.799Z,48.09
2019-03-26T13:33:02.000Z,48.19
2019-03-26T13:35:42.690Z,49.27
2019-03-26T13:38:17.777Z,47.54
2019-03-26T13:40:59.789Z,48.47
2019-03-26T13:43:32.694Z,48.40
2019-03-26T13:46:09.993Z,49.34
2019-03-26T13:48:48.561Z,49.63
2019-03-26T13:51:19.108Z,50.32
2019-03-26T13:53:52.745Z,49.71
2019-03-26T13:56:28.941Z,49.86
2019-03-26T13:59:02.503Z,49.27
2019-03-26T14:01:38.027Z,48.64
2019-03-26T14:04:13.423Z,47.75
2019-03-26T14:06:45.962Z,46.76
2019-03-26T14:09:15.961Z,47.05
2019-03-26T14:11:45.435Z,45.30
2019-03-26T14:14:14.878Z,45.40
2019-03-26T14:16:44.328Z,45.89
2019-03-26T14:19:13.771Z,45.17
2019-03-26T14:21:43.226Z,43.50
2019-03-26T14:24:13.511Z,42.56
2019-03-26T14:26:43.006Z,41.66
2019-03-26T14:29:12.437Z,43.01
2019-03-26T14:31:41.887Z,43.80
2019-03-26T14:34:11.342Z,43.46
2019-03-26T14:36:41.116Z,43.21
2019-03-26T14:39:11.900Z,42.88
2019-03-26T14:41:41.446Z,43.07
2019-03-26T14:44:10.892Z,44.49
2019-03-26T14:46:40.348Z,45.78
2019-03-26T14:49:09.789Z,45.92
2019-03-26T14:51:39.241Z,46.55
2019-03-26T14:54:08.696Z,46.77
2019-03-26T14:56:38.625Z,45.97
2019-03-26T14:59:08.067Z,46.18
2019-03-26T15:01:37.536Z,46.47
2019-03-26T15:04:06.980Z,46.37
2019-03-26T15:06:36.435Z,46.70
2019-03-26T15:09:08.495Z,47.01
2019-03-26T15:11:37.999Z,46.91
2019-03-26T15:14:07.463Z,46.87
2019-03-26T15:16:36.909Z,46.85
2019-03-26T15:19:06.364Z,46.70
2019-03-26T15:21:36.179Z,46.67
2019-03-26T15:24:05.642Z,46.73
2019-03-26T15:26:35.090Z,46.88
2019-03-26T15:29:09.490Z,46.73
2019-03-26T15:31:39.947Z,46.51
2019-03-26T15:34:11.867Z,46.21
2019-03-26T15:36:41.864Z,46.02
2019-03-26T15:39:11.673Z,46.07
2019-03-26T15:41:43.890Z,45.23
2019-03-26T15:44:20.907Z,45.35
2019-03-26T15:46:53.577Z,45.94
2019-03-26T15:49:30.406Z,44.61
2019-03-26T15:51:59.477Z,44.45
2019-03-26T15:54:33.556Z,43.86
2019-03-26T15:57:06.708Z,42.28
2019-03-26T15:59:40.959Z,41.13
2019-03-26T16:02:15.376Z,40.53
2019-03-26T16:04:49.717Z,38.27
2019-03-26T16:07:22.280Z,40.38
2019-03-26T16:09:58.237Z,42.03
2019-03-26T16:12:40.593Z,43.70
2019-03-26T16:15:04.908Z,44.33
2019-03-26T16:17:38.165Z,44.63
2019-03-26T16:20:10.592Z,45.77
2019-03-26T16:22:42.756Z,46.41
2019-03-26T16:25:26.816Z,45.14
2019-03-26T16:27:59.732Z,45.72
2019-03-26T16:30:34.702Z,46.46
2019-03-26T16:33:06.995Z,47.25
2019-03-26T16:35:40.426Z,47.97
2019-03-26T16:38:14.022Z,48.19
2019-03-26T16:40:48.639Z,48.53
2019-03-26T16:43:22.035Z,48.62
2019-03-26T16:45:54.797Z,48.80
2019-03-26T16:48:27.939Z,49.18
2019-03-26T16:51:01.254Z,49.81
2019-03-26T16:53:36.166Z,50.10
2019-03-26T16:56:09.126Z,49.67
2019-03-26T16:58:42.705Z,49.89
2019-03-26T17:01:16.998Z,50.22
2019-03-26T17:03:50.255Z,50.49
2019-03-26T17:06:23.612Z,50.64
2019-03-26T17:08:58.642Z,50.69
2019-03-26T17:11:31.055Z,50.34
2019-03-26T17:14:03.645Z,50.45
2019-03-26T17:16:36.368Z,50.97
2019-03-26T17:19:08.704Z,51.12
2019-03-26T17:21:41.787Z,50.69
2019-03-26T17:24:14.031Z,50.72
2019-03-26T17:26:47.053Z,50.92
2019-03-26T17:29:19.032Z,51.15
2019-03-26T17:31:52.088Z,51.29
2019-03-26T17:34:23.738Z,51.52
2019-03-26T17:36:56.424Z,51.76
2019-03-26T17:39:31.634Z,51.48
2019-03-26T17:42:16.561Z,51.93
2019-03-26T17:44:37.827Z,51.70
2019-03-26T17:47:11.681Z,51.65
2019-03-26T17:49:45.710Z,51.39
2019-03-26T17:52:18.187Z,51.51
2019-03-26T17:54:49.071Z,51.69
2019-03-26T17:57:18.555Z,51.65
2019-03-26T17:59:48.074Z,51.12
2019-03-26T18:02:17.507Z,50.34
2019-03-26T18:04:46.967Z,50.35
2019-03-26T18:07:16.411Z,50.51
2019-03-26T18:09:45.839Z,50.34
2019-03-26T18:12:15.287Z,50.34
2019-03-26T18:14:44.727Z,49.91
2019-03-26T18:17:14.174Z,50.29
2019-03-26T18:19:43.612Z,49.91
2019-03-26T18:22:13.070Z,50.04
2019-03-26T18:24:42.517Z,50.33
2019-03-26T18:27:11.969Z,50.12
2019-03-26T18:29:41.405Z,50.08
2019-03-26T18:32:10.850Z,50.35
2019-03-26T18:34:40.286Z,50.14
2019-03-26T18:37:09.739Z,50.16
2019-03-26T18:39:39.180Z,50.04
2019-03-26T18:42:08.619Z,49.83
2019-03-26T18:44:38.063Z,49.99
2019-03-26T18:47:07.513Z,50.26
2019-03-26T18:49:36.951Z,50.59
2019-03-26T18:52:06.408Z,50.38
2019-03-26T18:54:35.848Z,50.59
2019-03-26T18:57:05.388Z,50.75
2019-03-26T18:59:35.103Z,50.82
2019-03-26T19:02:04.540Z,50.98
2019-03-26T19:04:33.977Z,51.13
2019-03-26T19:07:03.424Z,51.21
2019-03-26T19:09:32.869Z,51.19
2019-03-26T19:12:02.328Z,51.30
2019-03-26T19:14:31.767Z,51.67
2019-03-26T19:17:01.216Z,51.66
2019-03-26T19:19:30.661Z,51.72
2019-03-26T19:22:00.106Z,52.01
2019-03-26T19:24:29.539Z,52.07
2019-03-26T19:26:58.990Z,51.93
2019-03-26T19:29:28.435Z,52.24
2019-03-26T19:31:58.172Z,52.81
2019-03-26T19:34:27.688Z,53.24
2019-03-26T19:36:57.139Z,53.08
2019-03-26T19:39:26.622Z,53.07
2019-03-26T19:41:56.094Z,53.23
2019-03-26T19:44:25.559Z,53.20
2019-03-26T19:46:55.055Z,52.78
2019-03-26T19:49:24.489Z,52.68
2019-03-26T19:51:53.945Z,52.44
2019-03-26T19:54:23.396Z,52.22
2019-03-26T19:56:52.839Z,52.41
2019-03-26T19:59:22.281Z,52.37
2019-03-26T20:01:52.046Z,52.63
2019-03-26T20:04:21.485Z,53.16
2019-03-26T20:06:50.935Z,53.36
2019-03-26T20:09:20.367Z,53.27
2019-03-26T20:11:49.833Z,52.96
2019-03-26T20:14:19.277Z,52.98
2019-03-26T20:16:48.700Z,53.01
2019-03-26T20:19:18.150Z,53.12
2019-03-26T20:21:49.826Z,53.27
2019-03-26T20:24:18.813Z,53.28
2019-03-26T20:26:48.277Z,53.23
2019-03-26T20:29:17.771Z,53.11
2019-03-26T20:31:47.215Z,53.25
2019-03-26T20:34:16.968Z,53.09
2019-03-26T20:36:46.401Z,53.00
2019-03-26T20:39:15.852Z,53.32
2019-03-26T20:41:45.283Z,53.42
2019-03-26T20:44:14.751Z,53.65
2019-03-26T20:46:44.183Z,52.68
2019-03-26T20:49:13.744Z,52.74
2019-03-26T20:51:43.216Z,52.71
2019-03-26T20:54:12.721Z,52.74
2019-03-26T20:56:42.162Z,52.56
2019-03-26T20:59:11.733Z,53.02
2019-03-26T21:01:41.170Z,53.69
2019-03-26T21:04:10.621Z,54.13
2019-03-26T21:06:40.054Z,54.21
2019-03-26T21:09:09.495Z,54.61
2019-03-26T21:11:38.929Z,55.48
2019-03-26T21:14:08.379Z,55.72
2019-03-26T21:16:37.811Z,55.64
2019-03-26T21:19:07.264Z,55.75
2019-03-26T21:21:36.699Z,55.88
2019-03-26T21:24:06.479Z,56.05
2019-03-26T21:26:35.912Z,56.11
2019-03-26T21:29:05.358Z,56.19
2019-03-26T21:31:34.796Z,56.39
2019-03-26T21:34:04.222Z,56.57
2019-03-26T21:36:33.648Z,56.39
2019-03-26T21:39:04.762Z,56.35
2019-03-26T21:41:34.202Z,56.37
2019-03-26T21:44:04.845Z,56.50
2019-03-26T21:46:34.355Z,57.05
2019-03-26T21:49:03.804Z,57.33
2019-03-26T21:51:33.237Z,57.36
2019-03-26T21:54:02.681Z,56.85
2019-03-26T21:56:32.109Z,56.27
2019-03-26T21:59:01.547Z,56.58
2019-03-26T22:01:30.980Z,56.38
2019-03-26T22:04:00.420Z,56.73
2019-03-26T22:06:29.920Z,56.74
2019-03-26T22:08:59.366Z,57.37
2019-03-26T22:11:30.438Z,57.62
2019-03-26T22:13:59.887Z,58.11
2019-03-26T22:16:29.318Z,58.46
2019-03-26T22:18:58.758Z,58.74
2019-03-26T22:21:28.192Z,58.98
2019-03-26T22:23:57.644Z,58.46
2019-03-26T22:26:27.070Z,58.37
2019-03-26T22:28:56.528Z,58.06
2019-03-26T22:31:25.980Z,57.92
2019-03-26T22:33:55.397Z,58.71
2019-03-26T22:36:24.849Z,59.39
2019-03-26T22:38:54.274Z,59.76
2019-03-26T22:41:23.708Z,59.26
2019-03-26T22:43:55.067Z,58.93
2019-03-26T22:46:24.309Z,59.46
2019-03-26T22:48:53.753Z,60.42
2019-03-26T22:51:23.184Z,61.03
2019-03-26T22:53:52.635Z,61.01
2019-03-26T22:56:22.081Z,61.10
2019-03-26T22:58:51.510Z,60.93
2019-03-26T23:01:21.474Z,60.86
2019-03-26T23:03:51.253Z,60.51
2019-03-26T23:06:20.681Z,60.05
2019-03-26T23:08:50.116Z,59.75
2019-03-26T23:11:19.884Z,59.51
2019-03-26T23:13:49.586Z,59.28
2019-03-26T23:16:19.024Z,59.17
2019-03-26T23:18:48.464Z,59.54
2019-03-26T23:21:19.884Z,60.15
2019-03-26T23:23:49.068Z,60.21
2019-03-26T23:26:18.503Z,60.38
2019-03-26T23:28:47.942Z,59.98
2019-03-26T23:31:17.368Z,59.93
2019-03-26T23:33:46.820Z,59.90
2019-03-26T23:36:16.255Z,59.72
2019-03-26T23:38:45.702Z,59.71
2019-03-26T23:41:15.211Z,60.11
2019-03-26T23:43:44.647Z,60.42
2019-03-26T23:46:14.084Z,60.03
2019-03-26T23:48:43.513Z,59.91
2019-03-26T23:51:12.964Z,60.16
2019-03-26T23:53:42.394Z,60.86
2019-03-26T23:56:11.840Z,61.07
2019-03-26T23:58:41.268Z,61.16
